createdAt,value
2023-05-02T00:02:37.269Z,23.2
2023-05-02T00:07:58.662Z,23.1
2023-05-02T00:13:17.055Z,23.2
2023-05-02T00:18:35.940Z,23.2
2023-05-02T00:23:58.324Z,23.2
2023-05-02T00:29:16.680Z,23.3
2023-05-02T00:34:37.012Z,23.3
2023-05-02T00:39:56.444Z,23.3
2023-05-02T00:45:14.533Z,23.3
2023-05-02T00:50:33.762Z,23.3
2023-05-02T00:55:52.374Z,23.3
2023-05-02T01:01:10.985Z,23.3
2023-05-02T01:06:29.310Z,23.3
2023-05-02T01:11:50.713Z,23.3
2023-05-02T01:17:09.642Z,23.3
2023-05-02T01:22:27.999Z,23.3
2023-05-02T01:27:46.258Z,23.3
2023-05-02T01:33:07.416Z,23.3
2023-05-02T01:38:25.786Z,23.3
2023-05-02T01:43:46.890Z,23.3
2023-05-02T01:49:05.288Z,23.3
2023-05-02T01:54:08.001Z,23.4
2023-05-02T01:59:26.640Z,23.4
2023-05-02T02:04:44.990Z,23.4
2023-05-02T02:10:03.553Z,23.4
2023-05-02T02:15:21.940Z,23.4
2023-05-02T02:20:40.549Z,23.4
2023-05-02T02:25:59.029Z,23.4
2023-05-02T02:31:17.481Z,23.4
2023-05-02T02:36:35.565Z,23.4
2023-05-02T02:41:53.927Z,23.4
2023-05-02T02:47:12.542Z,23.4
2023-05-02T02:52:30.724Z,23.4
2023-05-02T02:57:48.871Z,23.4
2023-05-02T03:03:07.270Z,23.4
2023-05-02T03:08:25.914Z,23.4
2023-05-02T03:13:44.762Z,23.4
2023-05-02T03:19:03.118Z,23.4
2023-05-02T03:24:21.518Z,23.4
2023-05-02T03:29:40.052Z,23.4
2023-05-02T03:34:58.128Z,23.4
2023-05-02T03:40:16.333Z,23.5
2023-05-02T03:45:34.693Z,23.5
2023-05-02T03:50:53.107Z,23.5
2023-05-02T03:56:11.470Z,23.5
2023-05-02T04:01:30.040Z,23.5
2023-05-02T04:06:48.723Z,23.5
2023-05-02T04:12:07.347Z,23.5
2023-05-02T04:17:25.950Z,23.5
2023-05-02T04:22:44.593Z,23.5
2023-05-02T04:28:02.958Z,23.4
2023-05-02T04:33:21.133Z,23.3
2023-05-02T04:38:39.542Z,23.1
2023-05-02T04:43:57.697Z,22.9
2023-05-02T04:49:16.022Z,22.7
2023-05-02T04:54:34.364Z,22.7
2023-05-02T04:59:52.760Z,22.8
2023-05-02T05:05:11.066Z,22.9
2023-05-02T05:10:29.266Z,22.9
2023-05-02T05:15:47.921Z,22.9
2023-05-02T05:21:06.106Z,23
2023-05-02T05:26:24.469Z,23
2023-05-02T05:31:42.756Z,22.9
2023-05-02T05:37:01.633Z,23
2023-05-02T05:42:20.031Z,23
2023-05-02T05:47:38.784Z,23
2023-05-02T05:52:57.059Z,23
2023-05-02T05:58:15.379Z,23.1
2023-05-02T06:03:34.199Z,23.1
2023-05-02T06:08:53.323Z,23.1
2023-05-02T06:14:12.144Z,23.1
2023-05-02T06:19:30.532Z,23.1
2023-05-02T06:24:49.335Z,23.1
2023-05-02T06:30:07.441Z,23.1
2023-05-02T06:35:25.898Z,23.2
2023-05-02T06:40:44.229Z,23.2
2023-05-02T06:46:02.551Z,23.2
2023-05-02T06:51:21.172Z,23.2
2023-05-02T06:56:39.348Z,23.2
2023-05-02T07:01:57.942Z,23.2
2023-05-02T07:07:15.922Z,23.3
2023-05-02T07:12:34.457Z,23.3
2023-05-02T07:17:52.814Z,23.3
2023-05-02T07:23:11.543Z,23.3
2023-05-02T07:28:30.065Z,23.3
2023-05-02T07:33:48.460Z,23.4
2023-05-02T07:39:06.542Z,23.4
2023-05-02T07:44:24.809Z,23.4
2023-05-02T07:49:43.206Z,23.4
2023-05-02T07:55:01.398Z,23.4
2023-05-02T08:00:19.557Z,23.4
2023-05-02T08:05:37.899Z,23.4
2023-05-02T08:10:56.289Z,23.4
2023-05-02T08:16:14.880Z,23.5
2023-05-02T08:21:33.166Z,23.5
2023-05-02T08:26:51.497Z,23.5
2023-05-02T08:32:09.956Z,23.5
2023-05-02T08:37:28.078Z,23.5
2023-05-02T08:42:46.740Z,23.5
2023-05-02T08:48:05.007Z,23.5
2023-05-02T08:53:23.467Z,23.5
2023-05-02T08:58:41.903Z,23.5
2023-05-02T09:04:00.196Z,23.6
2023-05-02T09:09:19.615Z,23.6
2023-05-02T09:14:38.065Z,23.6
2023-05-02T09:19:56.546Z,23.6
2023-05-02T09:25:15.133Z,23.6
2023-05-02T09:30:33.795Z,23.6
2023-05-02T09:35:52.094Z,23.6
2023-05-02T09:41:10.432Z,23.6
2023-05-02T09:46:28.974Z,23.6
2023-05-02T09:51:47.556Z,23.6
2023-05-02T09:57:06.002Z,23.7
2023-05-02T10:02:24.083Z,23.7
2023-05-02T10:07:42.529Z,23.7
2023-05-02T10:13:00.864Z,23.7
2023-05-02T10:18:19.037Z,23.7
2023-05-02T10:23:37.240Z,23.7
2023-05-02T10:28:55.686Z,23.7
2023-05-02T10:34:14.288Z,23.7
2023-05-02T10:39:32.396Z,23.7
2023-05-02T10:44:50.636Z,23.7
2023-05-02T10:50:09.081Z,23.7
2023-05-02T10:55:27.713Z,23.7
2023-05-02T11:00:46.252Z,23.7
2023-05-02T11:06:04.532Z,23.7
2023-05-02T11:11:22.734Z,23.7
2023-05-02T11:16:41.292Z,23.8
2023-05-02T11:21:59.489Z,23.8
2023-05-02T11:27:17.866Z,23.8
2023-05-02T11:32:36.104Z,23.7
2023-05-02T11:37:54.118Z,23.7
2023-05-02T11:43:12.500Z,23.7
2023-05-02T11:48:30.903Z,23.8
2023-05-02T11:53:49.738Z,23.8
2023-05-02T11:59:14.009Z,23.7
2023-05-02T12:04:32.764Z,23.7
2023-05-02T12:09:51.695Z,23.7
2023-05-02T12:15:09.650Z,23.7
2023-05-02T12:20:27.875Z,23.7
2023-05-02T12:25:45.870Z,23.7
2023-05-02T12:31:04.620Z,23.7
2023-05-02T12:36:22.904Z,23.7
2023-05-02T12:41:41.482Z,23.7
2023-05-02T12:47:00.278Z,23.7
2023-05-02T12:52:19.051Z,23.7
2023-05-02T12:57:37.231Z,23.7
2023-05-02T13:02:55.944Z,23.7
2023-05-02T13:08:15.741Z,23.7
2023-05-02T13:13:34.090Z,23.7
2023-05-02T13:18:52.313Z,23.7
2023-05-02T13:24:10.521Z,23.7
2023-05-02T13:29:28.930Z,23.7
2023-05-02T13:34:47.279Z,23.7
2023-05-02T13:40:05.876Z,23.7
2023-05-02T13:45:27.102Z,23.7
2023-05-02T13:50:46.502Z,23.7
2023-05-02T13:56:05.241Z,23.7
2023-05-02T14:01:24.980Z,23.6
2023-05-02T14:06:44.642Z,23.6
2023-05-02T14:12:04.478Z,23.6
2023-05-02T14:17:23.013Z,23.6
2023-05-02T14:22:41.546Z,23.6
2023-05-02T14:27:44.194Z,23.6
2023-05-02T14:33:02.746Z,23.6
2023-05-02T14:38:21.227Z,23.6
2023-05-02T14:43:39.786Z,23.6
2023-05-02T14:48:58.201Z,23.6
2023-05-02T14:54:16.861Z,23.6
2023-05-02T14:59:36.177Z,23.6
2023-05-02T15:04:54.645Z,23.6
2023-05-02T15:09:57.326Z,23.6
2023-05-02T15:15:15.715Z,23.6
2023-05-02T15:20:33.909Z,23.6
2023-05-02T15:25:52.373Z,23.6
2023-05-02T15:31:10.840Z,23.6
2023-05-02T15:36:29.633Z,23.6
2023-05-02T15:41:48.058Z,23.6
2023-05-02T15:47:06.456Z,23.5
2023-05-02T15:52:25.767Z,23.6
2023-05-02T15:57:44.483Z,23.6
2023-05-02T16:03:04.397Z,23.6
2023-05-02T16:08:22.797Z,23.6
2023-05-02T16:13:44.414Z,23.6
2023-05-02T16:19:03.014Z,23.6
2023-05-02T16:24:21.700Z,23.6
2023-05-02T16:29:40.402Z,23.6
2023-05-02T16:34:58.859Z,23.5
2023-05-02T16:40:17.241Z,23.5
2023-05-02T16:45:35.385Z,23.5
2023-05-02T16:50:53.859Z,23.5
2023-05-02T16:56:12.468Z,23.5
2023-05-02T17:01:31.146Z,23.5
2023-05-02T17:06:49.519Z,23.5
2023-05-02T17:12:08.841Z,23.5
2023-05-02T17:17:27.530Z,23.5
2023-05-02T17:22:45.941Z,23.5
2023-05-02T17:28:04.694Z,23.5
2023-05-02T17:33:23.002Z,23.5
2023-05-02T17:38:25.784Z,23.5
2023-05-02T17:43:44.251Z,23.5
2023-05-02T17:49:02.692Z,23.5
2023-05-02T17:54:21.298Z,23.4
2023-05-02T17:59:40.525Z,23.4
2023-05-02T18:04:58.853Z,23.4
2023-05-02T18:10:17.222Z,23.4
2023-05-02T18:15:35.770Z,23.4
2023-05-02T18:20:54.270Z,23.4
2023-05-02T18:26:12.792Z,23.4
2023-05-02T18:31:31.133Z,23.4
2023-05-02T18:36:49.485Z,23.4
2023-05-02T18:42:07.559Z,23.4
2023-05-02T18:47:26.153Z,23.4
2023-05-02T18:52:44.546Z,23.4
2023-05-02T18:58:02.959Z,23.4
2023-05-02T19:03:21.700Z,23.3
2023-05-02T19:08:40.396Z,23.3
2023-05-02T19:13:58.652Z,23.3
2023-05-02T19:19:17.129Z,23.3
2023-05-02T19:24:35.348Z,23.3
2023-05-02T19:29:53.846Z,23.3
2023-05-02T19:35:12.245Z,23.3
2023-05-02T19:40:30.452Z,23.3
2023-05-02T19:45:49.286Z,23.3
2023-05-02T19:51:07.775Z,23.3
2023-05-02T19:56:25.920Z,23.3
2023-05-02T20:01:44.374Z,23.3
2023-05-02T20:07:03.341Z,23.4
2023-05-02T20:12:21.683Z,23.3
2023-05-02T20:17:39.952Z,23.4
2023-05-02T20:22:58.564Z,23.4
2023-05-02T20:28:16.956Z,23.4
2023-05-02T20:33:46.095Z,23.4
2023-05-02T20:39:04.482Z,23.4
2023-05-02T20:44:23.020Z,23.3
2023-05-02T20:49:41.407Z,23.3
2023-05-02T20:54:59.726Z,23.3
2023-05-02T21:00:18.068Z,23.4
2023-05-02T21:05:36.316Z,23.4
2023-05-02T21:10:54.675Z,23.4
2023-05-02T21:16:12.941Z,23.4
2023-05-02T21:21:31.117Z,23.4
2023-05-02T21:26:49.653Z,23.4
2023-05-02T21:32:08.010Z,23.4
2023-05-02T21:37:26.275Z,23.4
2023-05-02T21:42:44.645Z,23.4
2023-05-02T21:48:02.676Z,23.4
2023-05-02T21:53:20.712Z,23.4
2023-05-02T21:58:39.082Z,23.4
2023-05-02T22:03:57.274Z,23.4
2023-05-02T22:09:15.523Z,23.4
2023-05-02T22:14:45.861Z,23.4
2023-05-02T22:20:04.862Z,23.4
2023-05-02T22:25:23.649Z,23.4
2023-05-02T22:30:41.801Z,23.4
2023-05-02T22:35:59.966Z,23.4
2023-05-02T22:41:18.365Z,23.4
2023-05-02T22:46:36.918Z,23.4
2023-05-02T22:51:55.475Z,23.4
2023-05-02T22:57:14.045Z,23.4
2023-05-02T23:02:32.468Z,23.4
2023-05-02T23:07:50.877Z,23.4
2023-05-02T23:13:09.057Z,23.4
2023-05-02T23:18:27.432Z,23.4
2023-05-02T23:23:45.628Z,23.4
2023-05-02T23:29:03.816Z,23.4
2023-05-02T23:34:22.411Z,23.4
2023-05-02T23:39:40.609Z,23.4
2023-05-02T23:44:58.587Z,23.4
2023-05-02T23:50:16.906Z,23.3
2023-05-02T23:55:35.194Z,23.4
